createdAt,value
2022-10-12T00:01:18.236Z,5.52
2022-10-12T00:03:47.811Z,5.54
2022-10-12T00:06:17.724Z,5.54
2022-10-12T00:08:46.475Z,5.52
2022-10-12T00:11:16.736Z,5.52
2022-10-12T00:13:44.772Z,5.54
2022-10-12T00:16:14.311Z,5.53
2022-10-12T00:18:42.598Z,5.54
2022-10-12T00:21:14.544Z,5.50
2022-10-12T00:23:44.992Z,5.54
2022-10-12T00:26:15.040Z,5.53
2022-10-12T00:28:43.796Z,5.50
2022-10-12T00:31:14.390Z,5.47
2022-10-12T00:33:43.231Z,5.46
2022-10-12T00:36:18.044Z,5.45
2022-10-12T00:38:47.963Z,5.44
2022-10-12T00:41:18.664Z,5.43
2022-10-12T00:43:48.414Z,5.44
2022-10-12T00:46:23.069Z,5.45
2022-10-12T00:48:56.995Z,5.44
2022-10-12T00:51:26.963Z,5.43
2022-10-12T00:53:59.951Z,5.42
2022-10-12T00:56:33.133Z,5.44
2022-10-12T00:59:06.545Z,5.40
2022-10-12T01:01:36.932Z,5.36
2022-10-12T01:04:07.300Z,5.39
2022-10-12T01:06:37.417Z,5.38
2022-10-12T01:09:05.897Z,5.38
2022-10-12T01:11:34.194Z,5.39
2022-10-12T01:14:02.842Z,5.37
2022-10-12T01:16:36.947Z,5.37
2022-10-12T01:19:23.086Z,5.39
2022-10-12T01:22:00.418Z,5.39
2022-10-12T01:24:45.304Z,5.40
2022-10-12T01:27:35.438Z,5.39
2022-10-12T01:30:10.012Z,5.38
2022-10-12T01:32:50.645Z,5.35
2022-10-12T01:35:26.613Z,5.34
2022-10-12T01:38:04.637Z,5.33
2022-10-12T01:40:38.691Z,5.33
2022-10-12T01:43:07.518Z,5.34
2022-10-12T01:45:37.352Z,5.33
2022-10-12T01:48:07.518Z,5.33
2022-10-12T01:50:44.783Z,5.33
2022-10-12T01:53:27.735Z,5.32
2022-10-12T01:56:03.020Z,5.29
2022-10-12T01:58:46.339Z,5.25
2022-10-12T02:01:23.189Z,5.21
2022-10-12T02:03:59.225Z,5.16
2022-10-12T02:06:33.821Z,5.11
2022-10-12T02:09:09.231Z,5.02
2022-10-12T02:11:41.600Z,5.00
2022-10-12T02:14:14.560Z,4.98
2022-10-12T02:16:51.045Z,4.97
2022-10-12T02:19:23.999Z,4.95
2022-10-12T02:21:54.411Z,4.94
2022-10-12T02:24:24.104Z,4.95
2022-10-12T02:26:55.072Z,4.94
2022-10-12T02:29:28.669Z,4.98
2022-10-12T02:32:03.789Z,4.98
2022-10-12T02:34:36.573Z,5.01
2022-10-12T02:37:08.587Z,5.00
2022-10-12T02:39:44.670Z,5.05
2022-10-12T02:42:19.186Z,5.04
2022-10-12T02:44:48.777Z,5.04
2022-10-12T02:47:19.890Z,5.00
2022-10-12T02:49:49.096Z,4.98
2022-10-12T02:52:17.083Z,4.97
2022-10-12T02:54:45.073Z,4.95
2022-10-12T02:57:18.587Z,4.90
2022-10-12T02:59:46.825Z,4.94
2022-10-12T03:02:14.778Z,4.93
2022-10-12T03:04:44.320Z,4.94
2022-10-12T03:07:12.328Z,4.95
2022-10-12T03:09:40.315Z,4.96
2022-10-12T03:12:08.432Z,4.97
2022-10-12T03:14:37.620Z,4.97
2022-10-12T03:17:05.730Z,4.98
2022-10-12T03:19:33.831Z,4.98
2022-10-12T03:22:03.207Z,4.95
2022-10-12T03:24:31.194Z,4.94
2022-10-12T03:26:59.243Z,4.93
2022-10-12T03:29:27.400Z,4.85
2022-10-12T03:31:55.683Z,4.88
2022-10-12T03:34:25.134Z,4.91
2022-10-12T03:36:53.224Z,4.90
2022-10-12T03:39:22.680Z,4.89
2022-10-12T03:41:50.994Z,4.87
2022-10-12T03:44:19.054Z,4.86
2022-10-12T03:46:47.282Z,4.86
2022-10-12T03:49:15.519Z,4.86
2022-10-12T03:51:43.887Z,4.81
2022-10-12T03:54:12.000Z,4.85
2022-10-12T03:56:41.702Z,4.86
2022-10-12T03:59:10.348Z,4.78
2022-10-12T04:01:38.495Z,4.85
2022-10-12T04:04:06.836Z,4.85
2022-10-12T04:06:35.630Z,4.83
2022-10-12T04:09:04.085Z,4.84
2022-10-12T04:11:32.359Z,4.84
2022-10-12T04:14:01.812Z,4.84
2022-10-12T04:16:31.228Z,4.80
2022-10-12T04:18:59.538Z,4.78
2022-10-12T04:21:31.282Z,4.70
2022-10-12T04:23:59.929Z,4.70
2022-10-12T04:26:28.320Z,4.71
2022-10-12T04:28:56.479Z,4.67
2022-10-12T04:31:26.219Z,4.72
2022-10-12T04:33:57.101Z,4.69
2022-10-12T04:36:25.753Z,4.66
2022-10-12T04:38:58.419Z,4.70
2022-10-12T04:41:29.464Z,4.71
2022-10-12T04:43:57.598Z,4.67
2022-10-12T04:46:27.518Z,4.70
2022-10-12T04:48:55.623Z,4.70
2022-10-12T04:51:23.749Z,4.72
2022-10-12T04:53:51.916Z,4.76
2022-10-12T04:56:20.098Z,4.73
2022-10-12T04:58:48.215Z,4.66
2022-10-12T05:01:16.375Z,4.69
2022-10-12T05:03:46.083Z,4.70
2022-10-12T05:06:14.470Z,4.63
2022-10-12T05:08:42.567Z,4.65
2022-10-12T05:11:10.719Z,4.70
2022-10-12T05:13:38.854Z,4.70
2022-10-12T05:16:07.489Z,4.69
2022-10-12T05:18:35.829Z,4.69
2022-10-12T05:21:05.456Z,4.70
2022-10-12T05:23:33.570Z,4.68
2022-10-12T05:26:02.249Z,4.67
2022-10-12T05:28:30.364Z,4.65
2022-10-12T05:30:58.615Z,4.68
2022-10-12T05:33:27.992Z,4.63
2022-10-12T05:35:56.612Z,4.68
2022-10-12T05:38:26.339Z,4.64
2022-10-12T05:41:00.181Z,4.67
2022-10-12T05:43:29.208Z,4.70
2022-10-12T05:45:57.289Z,4.68
2022-10-12T05:48:25.962Z,4.69
2022-10-12T05:50:54.443Z,4.72
2022-10-12T05:53:22.563Z,4.72
2022-10-12T05:55:56.472Z,4.76
2022-10-12T05:58:25.287Z,4.80
2022-10-12T06:00:53.838Z,4.81
2022-10-12T06:03:26.165Z,4.83
2022-10-12T06:05:54.441Z,4.85
2022-10-12T06:08:22.571Z,4.87
2022-10-12T06:10:52.324Z,4.91
2022-10-12T06:13:21.849Z,4.96
2022-10-12T06:15:50.996Z,5.01
2022-10-12T06:18:23.530Z,5.05
2022-10-12T06:21:08.713Z,5.06
2022-10-12T06:23:42.049Z,5.17
2022-10-12T06:26:10.204Z,5.21
2022-10-12T06:28:39.967Z,5.27
2022-10-12T06:31:08.254Z,5.35
2022-10-12T06:33:41.283Z,5.41
2022-10-12T06:36:09.680Z,5.49
2022-10-12T06:38:38.051Z,5.57
2022-10-12T06:41:06.381Z,5.64
2022-10-12T06:43:34.915Z,5.72
2022-10-12T06:46:05.352Z,5.83
2022-10-12T06:48:38.933Z,5.92
2022-10-12T06:51:07.528Z,5.99
2022-10-12T06:53:36.735Z,6.08
2022-10-12T06:56:07.808Z,6.14
2022-10-12T06:58:36.971Z,6.29
2022-10-12T07:01:08.603Z,6.41
2022-10-12T07:03:37.444Z,6.54
2022-10-12T07:06:11.127Z,6.69
2022-10-12T07:08:39.930Z,6.80
2022-10-12T07:11:10.033Z,6.93
2022-10-12T07:13:38.146Z,7.05
2022-10-12T07:16:08.845Z,7.20
2022-10-12T07:18:37.632Z,7.33
2022-10-12T07:21:05.974Z,7.42
2022-10-12T07:23:41.348Z,7.56
2022-10-12T07:26:13.183Z,7.66
2022-10-12T07:28:41.274Z,7.81
2022-10-12T07:31:11.599Z,7.86
2022-10-12T07:33:40.803Z,7.97
2022-10-12T07:36:14.342Z,8.07
2022-10-12T07:38:45.450Z,8.18
2022-10-12T07:41:14.603Z,8.27
2022-10-12T07:43:43.499Z,8.34
2022-10-12T07:46:13.360Z,8.43
2022-10-12T07:48:47.217Z,8.46
2022-10-12T07:51:17.382Z,8.50
2022-10-12T07:53:45.485Z,8.53
2022-10-12T07:56:16.200Z,8.54
2022-10-12T07:58:44.795Z,8.58
2022-10-12T08:01:14.661Z,8.67
2022-10-12T08:03:42.798Z,8.76
2022-10-12T08:06:12.680Z,8.84
2022-10-12T08:08:41.260Z,8.96
2022-10-12T08:11:10.154Z,9.01
2022-10-12T08:13:39.032Z,9.08
2022-10-12T08:16:10.965Z,9.12
2022-10-12T08:18:40.549Z,9.19
2022-10-12T08:21:09.858Z,9.21
2022-10-12T08:23:38.811Z,9.28
2022-10-12T08:26:08.133Z,9.37
2022-10-12T08:28:37.555Z,9.46
2022-10-12T08:31:11.173Z,9.60
2022-10-12T08:33:41.144Z,9.71
2022-10-12T08:36:09.878Z,9.72
2022-10-12T08:38:40.080Z,9.81
2022-10-12T08:41:21.137Z,9.92
2022-10-12T08:44:02.836Z,10.04
2022-10-12T08:50:19.967Z,10.42
2022-10-12T08:52:54.335Z,10.54
2022-10-12T08:55:33.013Z,10.64
2022-10-12T08:58:01.488Z,10.77
2022-10-12T09:03:13.218Z,10.91
2022-10-12T09:05:49.945Z,11.00
2022-10-12T09:08:30.696Z,11.06
2022-10-12T09:11:14.274Z,11.07
2022-10-12T09:13:48.338Z,11.06
2022-10-12T09:16:22.870Z,11.08
2022-10-12T09:18:55.289Z,11.17
2022-10-12T09:21:27.817Z,11.23
2022-10-12T09:23:58.024Z,11.35
2022-10-12T09:26:35.406Z,11.44
2022-10-12T09:29:05.871Z,11.51
2022-10-12T09:32:03.710Z,11.61
2022-10-12T09:34:33.700Z,11.59
2022-10-12T09:37:05.547Z,11.62
2022-10-12T09:39:36.582Z,11.69
2022-10-12T09:42:05.205Z,11.73
2022-10-12T09:44:37.903Z,11.80
2022-10-12T09:47:08.346Z,11.87
2022-10-12T09:49:43.839Z,11.91
2022-10-12T09:52:15.367Z,11.92
2022-10-12T09:54:49.347Z,11.97
2022-10-12T09:57:21.959Z,11.95
2022-10-12T09:59:50.775Z,12.00
2022-10-12T10:02:20.383Z,12.03
2022-10-12T10:04:50.063Z,12.00
2022-10-12T10:07:29.917Z,12.03
2022-10-12T10:10:16.622Z,12.06
2022-10-12T10:12:53.526Z,12.06
2022-10-12T10:15:25.770Z,12.11
2022-10-12T10:17:56.333Z,12.13
2022-10-12T10:20:30.707Z,12.16
2022-10-12T10:23:03.196Z,12.14
2022-10-12T10:25:31.482Z,12.09
2022-10-12T10:28:23.488Z,12.17
2022-10-12T10:31:01.139Z,12.24
2022-10-12T10:33:32.825Z,12.24
2022-10-12T10:36:07.876Z,12.25
2022-10-12T10:38:56.176Z,12.26
2022-10-12T10:41:27.612Z,12.24
2022-10-12T10:43:56.375Z,12.27
2022-10-12T10:46:26.501Z,12.34
2022-10-12T10:49:01.683Z,12.35
2022-10-12T10:51:50.596Z,12.43
2022-10-12T10:54:33.849Z,12.43
2022-10-12T10:57:06.052Z,12.57
2022-10-12T10:59:43.839Z,12.66
2022-10-12T11:02:20.992Z,12.73
2022-10-12T11:04:53.725Z,12.75
2022-10-12T11:07:28.929Z,12.72
2022-10-12T11:10:01.843Z,12.71
2022-10-12T11:12:34.347Z,12.80
2022-10-12T11:15:14.317Z,12.81
2022-10-12T11:17:45.314Z,12.84
2022-10-12T11:20:29.665Z,12.93
2022-10-12T11:23:04.288Z,12.96
2022-10-12T11:25:40.126Z,13.00
2022-10-12T11:28:09.420Z,12.99
2022-10-12T11:30:44.970Z,13.06
2022-10-12T11:33:16.803Z,13.09
2022-10-12T11:35:47.078Z,13.16
2022-10-12T11:38:21.602Z,13.14
2022-10-12T11:41:09.404Z,13.19
2022-10-12T11:43:50.133Z,13.26
2022-10-12T11:46:21.357Z,13.35
2022-10-12T11:48:55.391Z,13.36
2022-10-12T11:51:23.985Z,13.38
2022-10-12T11:54:01.448Z,13.43
2022-10-12T11:56:34.974Z,13.46
2022-10-12T11:59:06.957Z,13.52
2022-10-12T12:02:02.886Z,13.58
2022-10-12T12:04:42.729Z,13.58
2022-10-12T12:07:41.835Z,13.59
2022-10-12T12:10:46.140Z,13.61
2022-10-12T12:13:27.096Z,13.58
2022-10-12T12:16:34.460Z,13.66
2022-10-12T12:19:18.595Z,13.74
2022-10-12T12:22:18.750Z,13.75
2022-10-12T12:25:15.240Z,13.79
2022-10-12T12:27:46.230Z,13.80
2022-10-12T12:30:35.017Z,13.83
2022-10-12T12:33:07.464Z,13.85
2022-10-12T12:35:40.056Z,13.89
2022-10-12T12:38:23.891Z,13.89
2022-10-12T12:41:05.602Z,13.87
2022-10-12T12:44:10.727Z,13.85
2022-10-12T12:47:44.425Z,13.83
2022-10-12T12:50:05.520Z,13.83
2022-10-12T12:52:36.340Z,13.80
2022-10-12T12:55:25.984Z,13.83
2022-10-12T12:58:09.913Z,13.89
2022-10-12T13:03:42.811Z,13.94
2022-10-12T13:06:50.203Z,13.96
2022-10-12T13:09:46.810Z,13.99
2022-10-12T13:12:31.005Z,13.99
2022-10-12T13:15:19.379Z,13.99
2022-10-12T13:18:23.118Z,14.10
2022-10-12T13:20:58.567Z,14.17
2022-10-12T13:23:29.484Z,14.20
2022-10-12T13:26:02.685Z,14.26
2022-10-12T13:28:33.913Z,14.27
2022-10-12T13:31:09.126Z,14.30
2022-10-12T13:33:42.832Z,14.24
2022-10-12T13:36:21.664Z,14.27
2022-10-12T13:38:56.500Z,14.32
2022-10-12T13:41:27.599Z,14.25
2022-10-12T13:43:58.565Z,14.30
2022-10-12T13:46:39.179Z,14.27
2022-10-12T13:49:15.609Z,14.29
2022-10-12T13:51:45.059Z,14.28
2022-10-12T13:54:21.485Z,14.37
2022-10-12T13:56:54.539Z,14.48
2022-10-12T13:59:25.675Z,14.55
2022-10-12T14:01:57.126Z,14.58
2022-10-12T14:04:29.898Z,14.51
2022-10-12T14:07:02.367Z,14.46
2022-10-12T14:09:41.449Z,14.43
2022-10-12T14:12:11.009Z,14.41
2022-10-12T14:14:41.126Z,14.43
2022-10-12T14:17:14.745Z,14.43
2022-10-12T14:19:48.382Z,14.43
2022-10-12T14:22:23.578Z,14.48
2022-10-12T14:25:11.375Z,14.46
2022-10-12T14:27:41.037Z,14.48
2022-10-12T14:30:20.011Z,14.48
2022-10-12T14:32:49.826Z,14.49
2022-10-12T14:35:27.610Z,14.48
2022-10-12T14:37:57.357Z,14.40
2022-10-12T14:40:37.251Z,14.32
2022-10-12T14:43:09.659Z,14.28
2022-10-12T14:45:37.944Z,14.25
2022-10-12T14:48:11.981Z,14.21
2022-10-12T14:50:40.423Z,14.14
2022-10-12T14:53:12.737Z,14.17
2022-10-12T14:55:43.432Z,14.18
2022-10-12T14:58:16.418Z,14.15
2022-10-12T15:00:45.216Z,14.14
2022-10-12T15:03:13.347Z,14.12
2022-10-12T15:05:41.464Z,14.14
2022-10-12T15:08:09.504Z,14.11
2022-10-12T15:10:38.718Z,14.07
2022-10-12T15:13:08.350Z,14.03
2022-10-12T15:15:42.398Z,13.95
2022-10-12T15:18:10.877Z,13.85
2022-10-12T15:20:39.627Z,13.84
2022-10-12T15:23:07.902Z,13.82
2022-10-12T15:25:43.672Z,13.77
2022-10-12T15:28:13.403Z,13.74
2022-10-12T15:31:11.713Z,13.68
2022-10-12T15:33:31.485Z,13.59
2022-10-12T15:35:59.723Z,13.54
2022-10-12T15:38:27.929Z,13.46
2022-10-12T15:40:58.375Z,13.42
2022-10-12T15:43:35.807Z,13.36
2022-10-12T15:46:06.642Z,13.33
2022-10-12T15:48:35.234Z,13.28
2022-10-12T15:51:07.963Z,13.19
2022-10-12T15:53:36.278Z,13.17
2022-10-12T15:56:12.859Z,13.13
2022-10-12T15:58:42.722Z,13.09
2022-10-12T16:01:13.199Z,13.06
2022-10-12T16:03:41.635Z,13.01
2022-10-12T16:06:10.320Z,13.00
2022-10-12T16:08:38.641Z,12.97
2022-10-12T16:11:08.249Z,12.94
2022-10-12T16:13:42.913Z,12.89
2022-10-12T16:16:15.499Z,12.88
2022-10-12T16:18:43.676Z,12.84
2022-10-12T16:21:11.907Z,12.81
2022-10-12T16:23:41.730Z,12.77
2022-10-12T16:26:13.411Z,12.73
2022-10-12T16:28:41.895Z,12.74
2022-10-12T16:31:12.098Z,12.71
2022-10-12T16:33:42.280Z,12.68
2022-10-12T16:36:13.470Z,12.68
2022-10-12T16:38:41.773Z,12.66
2022-10-12T16:41:11.298Z,12.60
2022-10-12T16:43:39.368Z,12.59
2022-10-12T16:46:08.527Z,12.55
2022-10-12T16:48:37.423Z,12.51
2022-10-12T16:51:13.735Z,12.48
2022-10-12T16:53:42.807Z,12.45
2022-10-12T16:56:11.290Z,12.46
2022-10-12T16:58:39.358Z,12.43
2022-10-12T17:01:12.130Z,12.40
2022-10-12T17:03:40.417Z,12.37
2022-10-12T17:06:10.807Z,12.29
2022-10-12T17:08:40.197Z,12.24
2022-10-12T17:11:09.344Z,12.16
2022-10-12T17:13:38.699Z,12.08
2022-10-12T17:16:35.336Z,11.94
2022-10-12T17:19:03.641Z,11.78
2022-10-12T17:21:33.602Z,11.68
2022-10-12T17:24:02.344Z,11.54
2022-10-12T17:26:30.896Z,11.44
2022-10-12T17:28:59.102Z,11.31
2022-10-12T17:31:27.301Z,11.21
2022-10-12T17:33:56.835Z,11.08
2022-10-12T17:36:28.186Z,11.02
2022-10-12T17:38:59.886Z,10.93
2022-10-12T17:41:29.544Z,10.83
2022-10-12T17:43:59.125Z,10.78
2022-10-12T17:46:28.146Z,10.69
2022-10-12T17:48:57.502Z,10.66
2022-10-12T17:51:25.700Z,10.61
2022-10-12T17:53:57.253Z,10.56
2022-10-12T17:56:26.823Z,10.50
2022-10-12T17:58:56.337Z,10.47
2022-10-12T18:01:25.375Z,10.45
2022-10-12T18:03:55.455Z,10.43
2022-10-12T18:06:25.171Z,10.36
2022-10-12T18:08:55.165Z,10.36
2022-10-12T18:11:23.764Z,10.37
2022-10-12T18:13:56.307Z,10.30
2022-10-12T18:16:27.538Z,10.30
2022-10-12T18:18:56.568Z,10.29
2022-10-12T18:21:26.756Z,10.25
2022-10-12T18:23:55.340Z,10.24
2022-10-12T18:26:25.117Z,10.20
2022-10-12T18:28:56.788Z,10.20
2022-10-12T18:31:27.163Z,10.11
2022-10-12T18:33:58.237Z,10.10
2022-10-12T18:36:27.687Z,10.07
2022-10-12T18:38:56.014Z,9.96
2022-10-12T18:41:26.974Z,10.02
2022-10-12T18:44:00.786Z,9.95
2022-10-12T18:46:30.884Z,9.92
2022-10-12T18:48:59.207Z,9.90
2022-10-12T18:51:28.993Z,9.86
2022-10-12T18:53:58.199Z,9.84
2022-10-12T18:56:29.359Z,9.84
2022-10-12T18:59:00.307Z,9.81
2022-10-12T19:01:30.542Z,9.78
2022-10-12T19:04:00.541Z,9.79
2022-10-12T19:06:31.373Z,9.76
2022-10-12T19:09:01.402Z,9.77
2022-10-12T19:11:31.200Z,9.74
2022-10-12T19:14:02.257Z,9.73
2022-10-12T19:16:31.968Z,9.71
2022-10-12T19:19:03.068Z,9.68
2022-10-12T19:21:31.519Z,9.64
2022-10-12T19:24:03.038Z,9.58
2022-10-12T19:26:31.571Z,9.56
2022-10-12T19:29:01.183Z,9.54
2022-10-12T19:31:31.475Z,9.50
2022-10-12T19:34:02.661Z,9.47
2022-10-12T19:36:32.018Z,9.42
2022-10-12T19:39:02.647Z,9.43
2022-10-12T19:41:31.278Z,9.43
2022-10-12T19:44:02.486Z,9.40
2022-10-12T19:46:30.823Z,9.39
2022-10-12T19:49:00.361Z,9.39
2022-10-12T19:51:30.893Z,9.37
2022-10-12T19:54:01.686Z,9.36
2022-10-12T19:56:30.095Z,9.35
2022-10-12T19:59:00.544Z,9.35
2022-10-12T20:01:30.767Z,9.32
2022-10-12T20:03:59.272Z,9.29
2022-10-12T20:06:29.417Z,9.26
2022-10-12T20:08:59.340Z,9.23
2022-10-12T20:11:27.507Z,9.21
2022-10-12T20:13:57.324Z,9.19
2022-10-12T20:16:30.091Z,9.13
2022-10-12T20:19:02.222Z,9.08
2022-10-12T20:21:30.349Z,9.05
2022-10-12T20:23:58.659Z,9.02
2022-10-12T20:26:27.171Z,8.98
2022-10-12T20:28:56.048Z,8.96
2022-10-12T20:31:24.894Z,8.92
2022-10-12T20:33:56.139Z,8.89
2022-10-12T20:36:26.137Z,8.87
2022-10-12T20:38:55.353Z,8.84
2022-10-12T20:41:25.128Z,8.79
2022-10-12T20:43:56.560Z,8.78
2022-10-12T20:46:24.616Z,8.76
2022-10-12T20:48:58.616Z,8.74
2022-10-12T20:51:28.945Z,8.73
2022-10-12T20:53:59.347Z,8.74
2022-10-12T20:56:28.144Z,8.70
2022-10-12T20:58:56.386Z,8.69
2022-10-12T21:01:26.042Z,8.72
2022-10-12T21:03:55.954Z,8.70
2022-10-12T21:06:24.720Z,8.71
2022-10-12T21:08:53.894Z,8.67
2022-10-12T21:11:22.946Z,8.65
2022-10-12T21:13:51.565Z,8.62
2022-10-12T21:16:20.689Z,8.62
2022-10-12T21:18:48.787Z,8.59
2022-10-12T21:21:19.597Z,8.58
2022-10-12T21:23:55.423Z,8.56
2022-10-12T21:26:25.245Z,8.55
2022-10-12T21:28:53.738Z,8.52
2022-10-12T21:31:22.348Z,8.48
2022-10-12T21:33:50.825Z,8.42
2022-10-12T21:36:22.395Z,8.37
2022-10-12T21:38:51.508Z,8.33
2022-10-12T21:41:21.562Z,8.29
2022-10-12T21:43:50.862Z,8.25
2022-10-12T21:46:21.393Z,8.21
2022-10-12T21:48:50.540Z,8.17
2022-10-12T21:51:21.636Z,8.14
2022-10-12T21:53:49.936Z,8.09
2022-10-12T21:56:21.008Z,8.08
2022-10-12T21:58:49.848Z,8.05
2022-10-12T22:01:26.287Z,8.02
2022-10-12T22:03:55.173Z,8.00
2022-10-12T22:06:26.578Z,7.98
2022-10-12T22:08:57.024Z,7.95
2022-10-12T22:11:26.900Z,7.95
2022-10-12T22:13:59.279Z,7.94
2022-10-12T22:16:47.989Z,7.95
2022-10-12T22:19:27.228Z,7.98
2022-10-12T22:21:56.690Z,7.99
2022-10-12T22:24:24.697Z,7.97
2022-10-12T22:26:53.021Z,7.97
2022-10-12T22:29:21.102Z,7.97
2022-10-12T22:31:50.041Z,7.97
2022-10-12T22:34:18.534Z,7.96
2022-10-12T22:36:46.750Z,7.95
2022-10-12T22:39:16.328Z,7.96
2022-10-12T22:41:44.443Z,7.94
2022-10-12T22:44:12.498Z,7.92
2022-10-12T22:46:40.529Z,7.92
2022-10-12T22:49:08.609Z,7.91
2022-10-12T22:51:39.493Z,7.88
2022-10-12T22:54:08.529Z,7.87
2022-10-12T22:56:38.142Z,7.85
2022-10-12T22:59:07.273Z,7.85
2022-10-12T23:01:36.846Z,7.85
2022-10-12T23:04:05.087Z,7.85
2022-10-12T23:06:33.662Z,7.87
2022-10-12T23:09:01.776Z,7.90
2022-10-12T23:11:31.105Z,7.91
2022-10-12T23:14:00.689Z,7.93
2022-10-12T23:16:31.371Z,7.97
2022-10-12T23:19:01.699Z,8.01
2022-10-12T23:21:30.899Z,8.06
2022-10-12T23:24:00.306Z,8.10
2022-10-12T23:26:30.681Z,8.12
2022-10-12T23:29:00.617Z,8.15
2022-10-12T23:31:31.436Z,8.18
2022-10-12T23:34:01.255Z,8.20
2022-10-12T23:36:29.959Z,8.25
2022-10-12T23:39:00.768Z,8.27
2022-10-12T23:41:28.954Z,8.30
2022-10-12T23:43:57.233Z,8.33
2022-10-12T23:46:26.735Z,8.37
2022-10-12T23:48:55.124Z,8.42
2022-10-12T23:51:23.285Z,8.48
2022-10-12T23:53:52.809Z,8.52
2022-10-12T23:56:21.226Z,8.60
2022-10-12T23:58:49.307Z,8.66
